Morant Bay, Jamaica
Current Conditions -  °F | °C
As of 6:00 PM on Tuesday 25 Nov 2014 (Local Time) from MKJP Reporting Station
Few Clouds Few Clouds  
Wind Chill: 84°   Ceiling: Unl
Heat Index: 91°   Visibility: 6mi
Dew Point: 73°   Wind: 22mph
Humidity: 70%   Direction: 120°ESE
Pressure: 29.88"   Gusts: NA
Location:  17.87°N, 76.39°W
Report Text: MKJP 252300Z 12019KT 9999 FEW022 FEW024CB 29/23 Q1012
Loading
Personal Weather Stations






























Interactive Weather Map New forecast layout! Learn more

10-Day Weather Forecast

Advertisements
Track Severe Weather on mobile